Time;durP1;ratioP1;P1;durP2;ratioP2;P2;SDS_P1;SDS_P2;PMS_P1;PMS_P2;Temp;Humidity;BMP_temperature;BMP_pressure;BME280_temperature;BME280_humidity;BME280_pressure;Samples;Min_cycle;Max_cycle;Signal;HPM_P1;HPM_P2
2021/06/21 00:00:50;;;;;;;4.97;1.83;;;18.40;80.20;;;;;;5035048;28;20286;-77
2021/06/21 00:03:16;;;;;;;7.35;2.45;;;18.30;79.80;;;;;;5033474;28;20029;-78
2021/06/21 00:05:41;;;;;;;4.90;2.13;;;18.10;82.50;;;;;;5031367;28;20494;-78
2021/06/21 00:08:07;;;;;;;6.95;1.40;;;18.20;82.00;;;;;;5032216;28;20021;-78
2021/06/21 00:10:33;;;;;;;5.80;2.00;;;18.30;81.90;;;;;;5032732;28;20655;-78
2021/06/21 00:12:59;;;;;;;4.35;1.90;;;18.30;82.00;;;;;;5050869;28;20112;-77
2021/06/21 00:15:26;;;;;;;10.65;2.40;;;18.30;81.80;;;;;;5034513;28;20052;-78
2021/06/21 00:17:52;;;;;;;7.43;1.80;;;18.20;82.20;;;;;;5030483;28;21292;-78
2021/06/21 00:20:20;;;;;;;10.43;2.25;;;18.20;81.80;;;;;;5031568;28;20032;-77
2021/06/21 00:22:46;;;;;;;;;;;18.30;81.90;;;;;;5035408;28;20061;-78
2021/06/21 00:25:12;;;;;;;7.25;2.00;;;18.10;82.40;;;;;;5033753;28;20267;-78
2021/06/21 00:27:39;;;;;;;9.18;2.33;;;18.10;82.80;;;;;;5032353;28;20034;-79
2021/06/21 00:30:08;;;;;;;5.45;2.22;;;18.20;83.30;;;;;;5030390;28;20039;-78
2021/06/21 00:32:34;;;;;;;9.27;2.45;;;18.20;83.10;;;;;;5034492;28;20451;-77
2021/06/21 00:34:59;;;;;;;6.50;2.78;;;18.20;83.80;;;;;;5030017;28;20029;-78
2021/06/21 00:37:25;;;;;;;3.78;1.98;;;18.20;82.80;;;;;;5031151;28;20079;-78
2021/06/21 00:39:51;;;;;;;7.47;2.10;;;18.20;83.20;;;;;;5033764;28;20037;-77
2021/06/21 00:42:16;;;;;;;4.95;1.73;;;18.10;83.30;;;;;;5033504;28;20027;-77
2021/06/21 00:44:42;;;;;;;4.40;1.77;;;18.00;83.80;;;;;;5030838;28;20036;-78
2021/06/21 00:47:08;;;;;;;6.25;1.73;;;17.90;85.00;;;;;;5031331;28;20172;-78
2021/06/21 00:49:34;;;;;;;5.03;1.80;;;17.90;84.40;;;;;;5032876;28;20079;-78
2021/06/21 00:52:00;;;;;;;6.43;1.88;;;18.00;84.10;;;;;;5032973;28;20033;-78
2021/06/21 00:54:27;;;;;;;5.88;1.98;;;18.00;84.60;;;;;;5030186;28;20037;-76
2021/06/21 00:56:52;;;;;;;5.82;2.20;;;18.00;83.90;;;;;;5030898;28;20061;-77
2021/06/21 00:59:18;;;;;;;4.95;2.10;;;18.10;83.40;;;;;;5033074;28;20109;-77
2021/06/21 01:01:44;;;;;;;4.00;2.20;;;18.10;83.40;;;;;;5036855;28;20025;-78
2021/06/21 01:04:09;;;;;;;4.47;1.67;;;18.10;83.50;;;;;;5032377;28;20039;-78
2021/06/21 01:06:35;;;;;;;5.07;2.88;;;18.10;84.20;;;;;;5032453;28;20032;-77
2021/06/21 01:09:00;;;;;;;3.67;1.90;;;18.10;83.80;;;;;;5030875;28;20039;-77
2021/06/21 01:11:42;;;;;;;5.28;1.85;;;18.10;83.40;;;;;;5031303;28;20108;-78
2021/06/21 01:14:40;;;;;;;4.60;1.65;;;18.00;82.70;;;;;;5032448;28;20037;-78
2021/06/21 01:17:21;;;;;;;4.25;1.75;;;17.90;82.70;;;;;;5031943;28;20021;-76
2021/06/21 01:20:27;;;;;;;4.70;1.95;;;18.00;82.30;;;;;;5028161;28;20057;-77
2021/06/21 01:23:31;;;;;;;6.47;2.38;;;18.00;82.70;;;;;;5031678;28;20063;-79
2021/06/21 01:26:01;;;;;;;5.03;1.90;;;18.00;82.50;;;;;;5022384;28;20041;-78
2021/06/21 01:28:46;;;;;;;4.47;1.85;;;18.00;83.20;;;;;;5036276;28;20276;-78
2021/06/21 01:31:19;;;;;;;8.85;2.00;;;18.00;83.50;;;;;;5035088;28;20065;-78
2021/06/21 01:33:48;;;;;;;9.10;2.30;;;18.00;83.70;;;;;;5036520;28;20049;-77
2021/06/21 01:36:17;;;;;;;4.72;1.90;;;17.90;84.00;;;;;;5050181;28;21401;-77
2021/06/21 01:39:05;;;;;;;5.85;2.45;;;17.90;84.50;;;;;;5033034;28;20028;-78
2021/06/21 01:41:35;;;;;;;5.38;2.45;;;17.90;83.90;;;;;;5038524;28;20049;-78
2021/06/21 01:44:08;;;;;;;7.13;2.03;;;17.90;84.10;;;;;;5033987;28;20534;-78
2021/06/21 01:46:35;;;;;;;7.70;2.40;;;17.90;84.40;;;;;;5038963;28;20025;-78
2021/06/21 01:49:08;;;;;;;9.15;2.20;;;17.90;84.40;;;;;;5037696;28;20094;-77
2021/06/21 01:51:35;;;;;;;4.40;2.55;;;17.90;84.00;;;;;;5047882;28;20052;-78
2021/06/21 01:54:02;;;;;;;6.55;2.15;;;17.90;84.00;;;;;;5035984;28;20025;-76
2021/06/21 01:56:36;;;;;;;8.63;2.78;;;17.90;84.00;;;;;;5035126;28;20032;-77
2021/06/21 01:59:05;;;;;;;7.30;2.45;;;17.80;85.30;;;;;;5034040;28;20632;-78
2021/06/21 02:01:33;;;;;;;9.63;3.33;;;17.80;84.70;;;;;;5030870;28;20033;-78
2021/06/21 02:04:01;;;;;;;5.32;2.47;;;17.80;84.50;;;;;;5033138;28;20029;-77
2021/06/21 02:06:29;;;;;;;10.13;2.78;;;17.80;84.10;;;;;;5034206;28;20491;-78
2021/06/21 02:08:56;;;;;;;6.10;3.17;;;17.80;85.70;;;;;;5050182;28;20087;-78
2021/06/21 02:11:24;;;;;;;6.82;2.80;;;17.80;86.20;;;;;;5032746;28;20029;-78
2021/06/21 02:13:51;;;;;;;4.93;2.70;;;17.80;85.20;;;;;;5038582;28;20519;-78
2021/06/21 02:16:17;;;;;;;7.10;2.85;;;17.90;85.50;;;;;;5036005;28;20037;-77
2021/06/21 02:18:46;;;;;;;5.45;2.63;;;17.90;84.80;;;;;;5032443;28;20592;-77
2021/06/21 02:21:12;;;;;;;4.35;2.83;;;17.90;84.90;;;;;;5033232;28;20025;-77
2021/06/21 02:23:39;;;;;;;7.72;2.88;;;18.00;84.70;;;;;;5034252;28;20033;-77
2021/06/21 02:26:06;;;;;;;5.60;2.50;;;18.00;84.30;;;;;;5035366;28;20037;-78
2021/06/21 02:28:33;;;;;;;4.32;2.20;;;18.00;85.30;;;;;;5035139;28;20591;-78
2021/06/21 02:31:03;;;;;;;8.15;2.60;;;18.00;84.70;;;;;;5033509;28;20041;-77
2021/06/21 02:33:29;;;;;;;2.30;2.00;;;18.00;84.30;;;;;;5036087;28;20020;-78
2021/06/21 02:35:55;;;;;;;7.00;2.70;;;17.90;84.30;;;;;;5033401;28;22022;-78
2021/06/21 02:38:21;;;;;;;5.68;2.20;;;17.90;84.10;;;;;;5032631;28;20082;-77
2021/06/21 02:40:47;;;;;;;4.03;2.22;;;17.90;84.10;;;;;;5036858;28;20033;-77
2021/06/21 02:43:13;;;;;;;4.55;2.50;;;17.90;84.30;;;;;;5034980;28;20392;-77
2021/06/21 02:45:39;;;;;;;9.48;2.97;;;17.90;84.50;;;;;;5033059;28;20021;-78
2021/06/21 02:48:07;;;;;;;6.20;2.47;;;17.90;84.50;;;;;;5035235;28;20049;-77
2021/06/21 02:50:35;;;;;;;3.90;2.20;;;17.90;84.20;;;;;;5049857;28;20074;-78
2021/06/21 02:53:20;;;;;;;6.72;2.63;;;17.90;84.40;;;;;;5034235;28;20033;-77
2021/06/21 02:56:14;;;;;;;8.50;2.50;;;17.90;84.90;;;;;;5034533;28;20041;-77
2021/06/21 02:58:45;;;;;;;5.18;2.50;;;17.90;85.00;;;;;;5032632;28;20028;-78
2021/06/21 03:01:14;;;;;;;5.90;2.65;;;17.90;84.30;;;;;;5034914;28;20448;-79
2021/06/21 03:03:51;;;;;;;4.53;2.30;;;17.80;85.40;;;;;;5033159;28;20040;-78
2021/06/21 03:06:18;;;;;;;5.60;2.13;;;17.80;85.30;;;;;;5033542;28;20327;-77
2021/06/21 03:08:45;;;;;;;7.63;2.42;;;17.80;85.10;;;;;;5031683;28;20037;-78
2021/06/21 03:11:17;;;;;;;7.90;2.67;;;17.90;85.50;;;;;;5033327;28;20095;-78
2021/06/21 03:13:52;;;;;;;7.95;2.83;;;17.90;84.90;;;;;;5037229;28;20036;-77
2021/06/21 03:16:18;;;;;;;6.50;2.50;;;17.90;84.80;;;;;;5031856;28;20074;-78
2021/06/21 03:18:49;;;;;;;10.07;3.30;;;17.90;84.50;;;;;;5034605;28;21531;-78
2021/06/21 03:21:19;;;;;;;8.30;2.75;;;17.90;84.70;;;;;;5035133;28;21029;-77
2021/06/21 03:23:49;;;;;;;4.57;2.40;;;17.90;84.80;;;;;;5029077;28;20028;-79
2021/06/21 03:26:15;;;;;;;7.68;2.58;;;17.80;84.80;;;;;;5029099;28;20124;-78
2021/06/21 03:28:41;;;;;;;9.88;2.38;;;17.80;85.00;;;;;;5035437;28;20028;-78
2021/06/21 03:31:08;;;;;;;7.57;2.22;;;17.90;84.90;;;;;;5039151;28;20032;-77
2021/06/21 03:33:35;;;;;;;5.53;2.50;;;17.90;84.60;;;;;;5040176;28;20048;-78
2021/06/21 03:36:01;;;;;;;4.43;2.40;;;17.90;84.90;;;;;;5033401;28;20037;-77
2021/06/21 03:38:29;;;;;;;6.28;2.10;;;17.80;84.30;;;;;;5030741;28;20124;-77
2021/06/21 03:41:00;;;;;;;3.63;2.33;;;17.80;83.70;;;;;;5052633;28;20036;-77
2021/06/21 03:43:27;;;;;;;6.80;2.60;;;17.80;84.00;;;;;;5032992;28;20036;-77
2021/06/21 03:45:56;;;;;;;6.55;2.20;;;17.80;84.20;;;;;;5031169;28;20661;-79
2021/06/21 03:48:22;;;;;;;12.50;2.83;;;17.80;84.20;;;;;;5032998;28;20528;-77
2021/06/21 03:50:48;;;;;;;4.95;2.60;;;17.80;84.20;;;;;;5032644;28;20037;-78
2021/06/21 03:53:16;;;;;;;5.63;2.22;;;17.70;84.60;;;;;;5033165;28;20098;-78
2021/06/21 03:55:42;;;;;;;4.65;2.22;;;17.70;84.90;;;;;;5033080;28;20407;-77
2021/06/21 03:58:07;;;;;;;5.53;2.60;;;17.80;85.00;;;;;;5031834;28;20559;-78
2021/06/21 04:00:35;;;;;;;5.70;2.20;;;17.70;86.00;;;;;;5032779;28;20041;-78
2021/06/21 04:03:01;;;;;;;7.97;2.27;;;17.70;85.50;;;;;;5033837;28;20071;-77
2021/06/21 04:05:27;;;;;;;9.73;2.50;;;17.80;85.60;;;;;;5031806;28;20057;-77
2021/06/21 04:07:54;;;;;;;5.88;2.58;;;17.70;86.20;;;;;;5033063;28;21677;-78
2021/06/21 04:10:23;;;;;;;6.60;2.25;;;17.80;86.40;;;;;;5031606;28;20033;-78
2021/06/21 04:12:50;;;;;;;9.95;2.70;;;17.70;86.60;;;;;;5035867;28;20182;-78
2021/06/21 04:15:19;;;;;;;5.95;2.13;;;17.70;86.90;;;;;;5031916;28;20029;-77
2021/06/21 04:17:45;;;;;;;5.93;2.50;;;17.80;86.30;;;;;;5033048;28;20244;-79
2021/06/21 04:20:16;;;;;;;6.60;2.72;;;17.80;85.90;;;;;;5031162;28;20028;-77
2021/06/21 04:22:42;;;;;;;7.13;2.10;;;17.80;86.00;;;;;;5032225;28;20024;-78
2021/06/21 04:25:11;;;;;;;9.98;2.58;;;17.80;86.10;;;;;;5033136;28;20032;-78
2021/06/21 04:27:37;;;;;;;5.00;2.10;;;17.80;86.40;;;;;;5031302;28;20018;-78
2021/06/21 04:30:07;;;;;;;4.03;2.15;;;17.80;86.30;;;;;;5034495;28;20475;-78
2021/06/21 04:32:33;;;;;;;6.47;1.92;;;17.90;85.70;;;;;;5032466;28;21717;-77
2021/06/21 04:34:59;;;;;;;5.35;2.15;;;17.90;85.60;;;;;;5033738;28;20603;-78
2021/06/21 04:37:25;;;;;;;7.00;1.83;;;18.00;85.40;;;;;;5049097;28;20116;-78
2021/06/21 04:39:51;;;;;;;6.28;2.30;;;18.00;84.80;;;;;;5032554;28;20032;-77
2021/06/21 04:42:17;;;;;;;6.70;2.47;;;18.10;84.80;;;;;;5033477;28;20506;-77
2021/06/21 04:44:42;;;;;;;9.55;1.95;;;18.10;84.50;;;;;;5031109;28;20033;-78
2021/06/21 04:47:08;;;;;;;8.70;2.00;;;18.20;84.10;;;;;;5038707;28;20091;-78
2021/06/21 04:49:34;;;;;;;3.38;1.70;;;18.30;83.90;;;;;;5032746;28;20044;-78
2021/06/21 04:52:00;;;;;;;5.53;1.92;;;18.30;84.20;;;;;;5031632;28;20025;-78
2021/06/21 04:54:25;;;;;;;5.45;1.90;;;18.20;83.50;;;;;;5031882;28;20029;-78
2021/06/21 04:56:51;;;;;;;5.35;1.92;;;18.30;83.40;;;;;;5028882;28;20033;-78
2021/06/21 04:59:17;;;;;;;7.35;2.08;;;18.30;83.10;;;;;;5035105;28;20026;-77
2021/06/21 05:01:42;;;;;;;7.72;1.77;;;18.40;82.60;;;;;;5043692;28;20037;-79
2021/06/21 05:04:08;;;;;;;5.90;2.00;;;18.50;82.90;;;;;;5029515;28;20028;-78
2021/06/21 05:06:35;;;;;;;4.25;2.00;;;18.50;82.30;;;;;;5032260;28;20041;-78
2021/06/21 05:09:01;;;;;;;7.50;1.98;;;18.60;82.30;;;;;;5030615;28;20039;-77
2021/06/21 05:11:28;;;;;;;7.35;1.92;;;18.70;82.00;;;;;;5031881;28;20165;-78
2021/06/21 05:13:53;;;;;;;7.15;1.80;;;18.70;82.00;;;;;;5035906;28;20039;-78
2021/06/21 05:16:19;;;;;;;6.97;2.10;;;18.80;82.10;;;;;;5047886;28;20033;-78
2021/06/21 05:18:45;;;;;;;7.57;1.60;;;18.80;81.00;;;;;;5034807;28;20120;-78
2021/06/21 05:21:11;;;;;;;7.90;2.08;;;18.90;80.50;;;;;;5031544;28;20487;-79
2021/06/21 05:23:37;;;;;;;10.23;2.15;;;19.00;80.30;;;;;;5028655;28;20729;-77
2021/06/21 05:26:03;;;;;;;4.72;1.73;;;19.00;80.40;;;;;;5032139;28;20088;-78
2021/06/21 05:28:29;;;;;;;2.72;1.50;;;19.20;79.90;;;;;;5033327;28;20467;-78
2021/06/21 05:30:54;;;;;;;5.72;1.85;;;19.20;79.30;;;;;;5033622;28;20044;-79
2021/06/21 05:33:20;;;;;;;5.95;1.52;;;19.30;78.80;;;;;;5035069;28;20128;-77
2021/06/21 05:35:46;;;;;;;13.57;1.77;;;19.40;78.30;;;;;;5032737;28;20518;-77
2021/06/21 05:38:11;;;;;;;7.47;1.95;;;19.50;78.20;;;;;;5031217;28;20036;-78
2021/06/21 05:40:37;;;;;;;7.88;1.73;;;19.50;77.60;;;;;;5031115;28;20036;-78
2021/06/21 05:43:03;;;;;;;4.32;1.65;;;19.60;77.80;;;;;;5034258;28;20048;-77
2021/06/21 05:45:28;;;;;;;6.65;1.73;;;19.60;77.10;;;;;;5035390;28;20195;-78
2021/06/21 05:47:54;;;;;;;9.60;2.28;;;19.70;77.60;;;;;;5034905;28;20033;-78
2021/06/21 05:50:20;;;;;;;3.63;1.48;;;19.70;76.30;;;;;;5043697;28;20055;-78
2021/06/21 05:52:49;;;;;;;5.88;1.30;;;19.80;75.10;;;;;;5037892;28;20037;-77
2021/06/21 05:55:18;;;;;;;6.35;1.65;;;19.80;74.00;;;;;;5041395;28;20463;-78
2021/06/21 05:57:43;;;;;;;4.10;1.50;;;19.90;74.60;;;;;;5039426;28;20021;-78
2021/06/21 06:00:09;;;;;;;5.70;1.30;;;19.90;73.60;;;;;;5039471;28;20025;-77
2021/06/21 06:02:35;;;;;;;3.42;1.52;;;20.00;74.20;;;;;;5037415;28;20562;-78
2021/06/21 06:05:01;;;;;;;6.32;1.88;;;20.00;74.30;;;;;;5039279;28;20037;-78
2021/06/21 06:07:26;;;;;;;3.88;1.70;;;20.10;73.40;;;;;;5037920;28;20079;-78
2021/06/21 06:09:52;;;;;;;7.05;1.80;;;20.10;73.60;;;;;;5038190;28;20075;-78
2021/06/21 06:12:18;;;;;;;6.53;1.30;;;20.10;72.60;;;;;;5046471;28;20100;-77
2021/06/21 06:14:43;;;;;;;5.68;1.58;;;20.20;72.90;;;;;;5040078;28;20026;-79
2021/06/21 06:17:09;;;;;;;5.20;1.80;;;20.20;73.10;;;;;;5043669;28;20044;-77
2021/06/21 06:19:35;;;;;;;9.45;1.20;;;20.30;73.60;;;;;;5039028;28;20025;-78
2021/06/21 06:22:00;;;;;;;2.22;1.38;;;20.40;73.60;;;;;;5058327;28;20021;-78
2021/06/21 06:24:26;;;;;;;6.40;1.50;;;20.50;73.30;;;;;;5041551;28;20030;-78
2021/06/21 06:26:53;;;;;;;2.38;1.27;;;20.50;73.50;;;;;;5044965;28;20308;-78
2021/06/21 06:29:21;;;;;;;6.07;1.83;;;20.50;71.80;;;;;;5044182;28;20108;-78
2021/06/21 06:31:48;;;;;;;2.50;1.70;;;20.60;72.20;;;;;;5046160;28;20064;-78
2021/06/21 06:34:16;;;;;;;3.70;1.58;;;20.70;72.50;;;;;;5044364;28;20025;-78
2021/06/21 06:36:42;;;;;;;5.75;1.27;;;20.80;72.10;;;;;;5047590;28;20487;-78
2021/06/21 06:39:08;;;;;;;11.95;1.55;;;20.80;70.90;;;;;;5043543;28;20067;-78
2021/06/21 06:41:35;;;;;;;2.45;1.23;;;20.80;70.40;;;;;;5045429;28;20365;-78
2021/06/21 06:44:01;;;;;;;3.05;1.60;;;20.90;71.10;;;;;;5043760;28;20025;-77
2021/06/21 06:46:27;;;;;;;4.40;1.20;;;20.90;71.00;;;;;;5044420;28;20025;-78
2021/06/21 06:48:52;;;;;;;3.97;1.27;;;21.00;69.30;;;;;;5054891;28;20067;-78
2021/06/21 06:51:19;;;;;;;6.15;1.65;;;21.00;68.70;;;;;;5044224;28;20499;-78
2021/06/21 06:54:01;;;;;;;9.25;1.70;;;21.00;67.80;;;;;;5042126;28;20033;-78
2021/06/21 06:59:11;;;;;;;1.80;1.08;;;21.10;68.40;;;;;;5046024;28;20395;-79
2021/06/21 07:01:37;;;;;;;5.45;1.75;;;21.20;68.20;;;;;;5043518;28;20029;-77
2021/06/21 07:04:03;;;;;;;8.23;2.40;;;21.20;68.80;;;;;;5047725;28;20074;-77
2021/06/21 07:06:29;;;;;;;5.82;1.05;;;21.30;67.60;;;;;;5039302;28;20025;-77
2021/06/21 07:08:55;;;;;;;5.43;1.17;;;21.30;67.40;;;;;;5046253;28;20534;-77
2021/06/21 07:11:20;;;;;;;5.10;1.63;;;21.50;67.30;;;;;;5047310;28;20119;-78
2021/06/21 07:13:46;;;;;;;4.20;1.25;;;21.40;66.10;;;;;;5042437;28;20090;-78
2021/06/21 07:16:12;;;;;;;5.95;1.50;;;21.50;66.00;;;;;;5035705;28;20400;-77
2021/06/21 07:18:38;;;;;;;6.88;1.20;;;21.60;67.20;;;;;;5041543;28;20029;-77
2021/06/21 07:21:04;;;;;;;3.53;1.27;;;21.60;67.70;;;;;;5044075;28;20058;-77
2021/06/21 07:23:30;;;;;;;5.85;1.70;;;21.70;66.80;;;;;;5042411;28;20017;-77
2021/06/21 07:25:56;;;;;;;9.20;1.45;;;21.80;65.70;;;;;;5044480;28;20059;-77
2021/06/21 07:28:22;;;;;;;1.92;1.20;;;21.70;65.70;;;;;;5043329;28;20029;-77
2021/06/21 07:30:47;;;;;;;3.53;1.10;;;21.70;64.70;;;;;;5040715;28;20033;-77
2021/06/21 07:33:13;;;;;;;4.65;1.70;;;21.70;65.50;;;;;;5044519;28;20029;-77
2021/06/21 07:35:40;;;;;;;6.28;1.88;;;21.80;65.40;;;;;;5042530;28;20040;-77
2021/06/21 07:38:07;;;;;;;2.85;1.00;;;21.90;65.70;;;;;;5047011;28;20418;-78
2021/06/21 07:40:37;;;;;;;2.57;1.17;;;22.00;65.40;;;;;;5042564;28;20029;-77
2021/06/21 07:43:03;;;;;;;5.97;1.70;;;22.00;65.70;;;;;;5041756;28;20036;-77
2021/06/21 07:45:29;;;;;;;4.68;1.27;;;22.10;64.00;;;;;;5047213;28;20037;-78
2021/06/21 07:47:58;;;;;;;3.85;1.00;;;22.00;65.10;;;;;;5044468;28;20048;-78
2021/06/21 07:50:27;;;;;;;4.25;1.30;;;22.00;64.80;;;;;;5053683;28;20032;-77
2021/06/21 07:52:52;;;;;;;3.70;1.35;;;22.10;64.70;;;;;;5046461;28;20519;-78
2021/06/21 07:55:18;;;;;;;2.33;1.05;;;22.10;64.60;;;;;;5052766;28;20041;-77
2021/06/21 07:57:43;;;;;;;3.28;1.23;;;22.10;65.30;;;;;;5048354;28;20025;-78
2021/06/21 08:00:10;;;;;;;4.45;1.48;;;22.20;66.40;;;;;;5045998;28;20021;-76
2021/06/21 08:02:35;;;;;;;5.50;1.42;;;22.20;64.50;;;;;;5043101;28;20039;-78
2021/06/21 08:05:01;;;;;;;5.55;1.30;;;22.30;64.90;;;;;;5043891;28;20025;-77
2021/06/21 08:07:27;;;;;;;2.72;1.13;;;22.30;64.30;;;;;;5042728;28;20098;-77
2021/06/21 08:09:52;;;;;;;7.30;1.80;;;22.30;64.50;;;;;;5041263;28;20572;-79
2021/06/21 08:12:20;;;;;;;3.80;1.50;;;22.50;65.60;;;;;;5047613;28;20132;-77
2021/06/21 08:14:46;;;;;;;7.70;2.40;;;22.60;64.70;;;;;;5045483;28;20063;-78
2021/06/21 08:17:11;;;;;;;5.25;1.35;;;22.70;65.30;;;;;;5045192;28;20480;-78
2021/06/21 08:19:37;;;;;;;7.05;1.20;;;22.80;63.60;;;;;;5050102;28;20107;-78
2021/06/21 08:22:03;;;;;;;5.75;1.58;;;22.80;63.10;;;;;;5042604;28;20022;-77
2021/06/21 08:24:29;;;;;;;5.35;1.40;;;22.90;64.50;;;;;;5051169;28;20044;-78
2021/06/21 08:26:59;;;;;;;5.10;1.30;;;23.10;64.00;;;;;;5061690;28;20033;-77
2021/06/21 08:29:25;;;;;;;2.97;1.02;;;23.20;63.10;;;;;;5042505;28;20106;-78
2021/06/21 08:31:50;;;;;;;3.70;1.15;;;23.20;61.60;;;;;;5042928;28;20044;-78
2021/06/21 08:34:16;;;;;;;4.63;1.48;;;23.10;60.70;;;;;;5047322;28;20069;-77
2021/06/21 08:36:42;;;;;;;5.13;1.33;;;23.10;62.70;;;;;;5045754;28;20060;-77
2021/06/21 08:39:07;;;;;;;3.15;1.10;;;23.20;61.70;;;;;;5045188;28;20040;-78
2021/06/21 08:41:33;;;;;;;4.68;1.25;;;23.30;61.40;;;;;;5043845;28;20048;-78
2021/06/21 08:44:00;;;;;;;4.57;1.60;;;23.40;61.40;;;;;;5043734;28;20053;-78
2021/06/21 08:46:26;;;;;;;5.13;1.70;;;23.60;61.10;;;;;;5046787;28;20520;-78
2021/06/21 08:48:55;;;;;;;4.88;1.40;;;23.70;60.00;;;;;;5044092;28;20098;-77
2021/06/21 08:51:21;;;;;;;6.30;1.40;;;23.70;60.70;;;;;;5046014;28;20021;-78
2021/06/21 08:53:47;;;;;;;5.65;1.58;;;23.80;60.70;;;;;;5048702;28;20129;-77
2021/06/21 08:56:13;;;;;;;5.68;1.40;;;23.80;60.70;;;;;;5043990;28;20104;-77
2021/06/21 08:58:40;;;;;;;6.88;1.80;;;23.90;59.90;;;;;;5044664;28;20121;-78
2021/06/21 09:01:06;;;;;;;6.07;1.33;;;23.90;58.30;;;;;;5043650;28;20033;-78
2021/06/21 09:03:33;;;;;;;5.45;1.50;;;23.90;58.10;;;;;;5045177;28;20119;-77
2021/06/21 09:05:59;;;;;;;3.30;1.02;;;24.00;59.30;;;;;;5042309;28;20025;-78
2021/06/21 09:08:25;;;;;;;5.45;1.58;;;24.10;58.00;;;;;;5041961;28;20039;-78
2021/06/21 09:10:52;;;;;;;1.67;1.02;;;24.10;58.80;;;;;;5043362;28;20032;-78
2021/06/21 09:13:19;;;;;;;2.72;1.02;;;24.30;60.00;;;;;;5041911;28;20033;-79
2021/06/21 09:15:48;;;;;;;1.58;1.08;;;24.40;57.20;;;;;;5046893;28;20036;-78
2021/06/21 09:18:36;;;;;;;5.10;1.40;;;24.40;54.80;;;;;;5042565;28;20550;-78
2021/06/21 09:21:28;;;;;;;5.28;1.48;;;24.50;56.40;;;;;;5041996;28;20428;-78
2021/06/21 09:23:57;;;;;;;4.25;1.30;;;24.60;56.10;;;;;;5046232;28;20017;-78
2021/06/21 09:26:25;;;;;;;3.47;1.10;;;24.60;55.20;;;;;;5046231;28;20391;-78
2021/06/21 09:28:51;;;;;;;5.45;1.33;;;24.50;55.60;;;;;;5048984;28;20029;-77
2021/06/21 09:31:18;;;;;;;4.35;1.08;;;24.60;54.70;;;;;;5050631;28;20059;-78
2021/06/21 09:33:44;;;;;;;4.55;0.90;;;24.50;52.50;;;;;;5045049;28;21069;-78
2021/06/21 09:36:29;;;;;;;5.40;1.30;;;24.50;53.10;;;;;;5047457;28;20115;-78
2021/06/21 09:39:14;;;;;;;5.68;1.45;;;24.60;53.50;;;;;;5043126;28;20071;-77
2021/06/21 09:41:39;;;;;;;3.20;1.17;;;24.70;52.80;;;;;;5045319;28;20025;-77
2021/06/21 09:44:05;;;;;;;4.10;1.38;;;24.70;53.50;;;;;;5047167;28;20045;-78
2021/06/21 09:46:31;;;;;;;4.25;1.40;;;24.80;52.90;;;;;;5045686;28;20025;-78
2021/06/21 09:48:56;;;;;;;3.95;1.00;;;24.80;52.30;;;;;;5046808;28;20043;-77
2021/06/21 09:51:34;;;;;;;4.28;1.17;;;24.80;52.50;;;;;;5047921;28;20083;-77
2021/06/21 09:54:08;;;;;;;3.08;1.35;;;24.90;53.30;;;;;;5048839;28;20036;-77
2021/06/21 09:56:38;;;;;;;6.72;1.60;;;24.90;53.70;;;;;;5043669;28;20025;-78
2021/06/21 09:59:28;;;;;;;6.00;1.35;;;24.90;53.80;;;;;;5049892;28;20066;-78
2021/06/21 10:02:07;;;;;;;3.60;1.95;;;24.90;54.60;;;;;;5049247;28;20558;-77
2021/06/21 10:04:35;;;;;;;3.72;1.20;;;24.80;53.30;;;;;;5049512;28;20040;-76
2021/06/21 10:07:01;;;;;;;3.97;1.20;;;24.70;53.40;;;;;;5049890;28;20116;-77
2021/06/21 10:09:27;;;;;;;3.42;1.05;;;24.90;53.50;;;;;;5048487;28;20022;-77
2021/06/21 10:11:53;;;;;;;3.13;1.25;;;25.00;53.70;;;;;;5047106;28;20039;-77
2021/06/21 10:14:22;;;;;;;3.35;1.35;;;25.10;52.50;;;;;;5048589;28;20711;-77
2021/06/21 10:16:50;;;;;;;4.82;1.52;;;25.10;52.70;;;;;;5048582;28;20029;-77
2021/06/21 10:19:16;;;;;;;3.00;1.10;;;25.10;54.10;;;;;;5048279;28;21813;-77
2021/06/21 10:21:46;;;;;;;3.83;1.30;;;25.20;53.70;;;;;;5049980;28;20021;-77
2021/06/21 10:24:13;;;;;;;4.22;1.13;;;25.20;52.90;;;;;;5041551;28;20017;-78
2021/06/21 10:26:40;;;;;;;1.75;1.20;;;25.30;52.50;;;;;;5046381;28;20033;-77
2021/06/21 10:29:06;;;;;;;6.03;1.48;;;25.40;53.40;;;;;;5045746;28;20090;-78
2021/06/21 10:31:32;;;;;;;3.22;1.20;;;25.40;52.70;;;;;;5047455;28;20037;-77
2021/06/21 10:34:01;;;;;;;3.03;1.00;;;25.40;51.00;;;;;;5049016;28;20028;-77
2021/06/21 10:36:46;;;;;;;2.42;1.27;;;25.50;50.50;;;;;;5049314;28;20025;-78
2021/06/21 10:39:39;;;;;;;3.55;1.17;;;25.50;51.90;;;;;;5047669;28;20557;-77
2021/06/21 10:42:05;;;;;;;4.25;1.30;;;25.60;50.10;;;;;;5044589;28;20045;-77
2021/06/21 10:44:46;;;;;;;5.00;1.77;;;25.50;50.50;;;;;;5062770;28;20028;-77
2021/06/21 10:47:34;;;;;;;4.95;1.23;;;25.50;49.70;;;;;;5046917;28;20376;-77
2021/06/21 10:50:07;;;;;;;6.63;1.50;;;25.50;49.90;;;;;;5048058;28;20024;-77
2021/06/21 10:52:40;;;;;;;2.35;0.98;;;25.40;50.00;;;;;;5050900;28;20017;-78
2021/06/21 10:55:21;;;;;;;2.72;1.00;;;25.50;48.60;;;;;;5049098;28;20032;-77
2021/06/21 10:58:29;;;;;;;3.33;1.30;;;25.60;48.10;;;;;;5042045;28;20195;-77
2021/06/21 11:00:56;;;;;;;5.32;2.15;;;25.60;47.60;;;;;;5024465;28;20145;-77
2021/06/21 11:03:25;;;;;;;0.95;0.82;;;25.60;47.90;;;;;;5038227;28;20478;-77
2021/06/21 11:05:52;;;;;;;2.45;0.90;;;25.40;49.60;;;;;;5048539;28;20033;-77
2021/06/21 11:08:39;;;;;;;3.25;1.10;;;25.60;50.00;;;;;;5068537;28;20025;-77
2021/06/21 11:11:38;;;;;;;3.30;0.98;;;25.70;50.00;;;;;;5051161;28;20386;-77
2021/06/21 11:14:20;;;;;;;4.82;1.30;;;25.80;51.50;;;;;;5063229;28;20114;-78
2021/06/21 11:16:48;;;;;;;3.78;1.00;;;25.80;50.40;;;;;;5043624;28;20040;-78
2021/06/21 11:19:13;;;;;;;4.15;1.15;;;25.80;50.20;;;;;;5046034;28;21370;-79
2021/06/21 11:21:47;;;;;;;4.35;1.15;;;25.90;49.90;;;;;;5047373;28;20124;-78
2021/06/21 11:24:35;;;;;;;4.35;1.10;;;25.90;49.70;;;;;;5049289;28;20032;-77
2021/06/21 11:27:09;;;;;;;2.42;1.13;;;25.80;49.10;;;;;;5051872;28;20733;-77
2021/06/21 11:29:41;;;;;;;1.80;1.15;;;25.90;49.20;;;;;;5062888;28;20033;-78
2021/06/21 11:32:08;;;;;;;2.30;1.10;;;25.90;50.00;;;;;;5047349;28;20034;-78
2021/06/21 11:34:56;;;;;;;3.27;1.20;;;26.00;48.50;;;;;;5050266;28;20442;-78
2021/06/21 11:37:43;;;;;;;2.35;1.05;;;25.90;49.00;;;;;;5048893;28;20074;-78
2021/06/21 11:40:12;;;;;;;4.70;1.30;;;25.90;51.40;;;;;;5045267;28;20033;-78
2021/06/21 11:42:38;;;;;;;5.95;1.15;;;25.90;50.40;;;;;;5045845;28;20129;-77
2021/06/21 11:45:04;;;;;;;5.35;1.40;;;25.90;51.80;;;;;;5048537;28;20107;-78
2021/06/21 11:47:31;;;;;;;7.78;3.60;;;25.90;50.30;;;;;;5051164;28;20025;-78
2021/06/21 11:50:31;;;;;;;7.07;1.47;;;26.00;49.80;;;;;;5047681;28;20025;-79
2021/06/21 11:52:57;;;;;;;3.22;1.17;;;26.00;48.60;;;;;;5037569;28;20037;-79
2021/06/21 11:55:22;;;;;;;2.60;1.17;;;26.00;49.20;;;;;;5048967;28;20028;-78
2021/06/21 11:57:50;;;;;;;4.30;1.25;;;26.10;48.80;;;;;;5049461;28;20033;-78
2021/06/21 12:00:17;;;;;;;5.00;1.27;;;26.00;50.10;;;;;;5043579;28;20037;-77
2021/06/21 12:02:43;;;;;;;6.07;1.30;;;25.90;46.90;;;;;;5043471;28;20029;-78
2021/06/21 12:05:13;;;;;;;2.70;1.33;;;25.90;49.10;;;;;;5047084;28;20537;-78
2021/06/21 12:07:43;;;;;;;5.90;1.30;;;25.90;49.10;;;;;;5048375;28;20028;-78
2021/06/21 12:10:16;;;;;;;5.07;1.20;;;25.80;52.90;;;;;;5057854;28;20436;-77
2021/06/21 12:12:51;;;;;;;7.57;1.48;;;25.70;49.10;;;;;;5047594;28;20029;-78
2021/06/21 12:15:29;;;;;;;3.72;1.17;;;25.80;49.50;;;;;;5047156;28;20021;-78
2021/06/21 12:17:55;;;;;;;3.80;1.10;;;25.90;50.40;;;;;;5039951;28;20037;-78
2021/06/21 12:20:21;;;;;;;1.38;1.00;;;26.00;51.80;;;;;;5042696;28;20036;-78
2021/06/21 12:22:53;;;;;;;4.32;1.48;;;26.00;49.40;;;;;;5048001;28;20436;-78
2021/06/21 12:25:45;;;;;;;4.05;1.25;;;26.10;52.20;;;;;;5042348;28;20049;-78
2021/06/21 12:28:24;;;;;;;3.42;1.20;;;26.00;49.10;;;;;;5045096;28;20091;-78
2021/06/21 12:30:57;;;;;;;3.45;1.20;;;26.10;50.20;;;;;;5040832;28;20029;-78
2021/06/21 12:33:37;;;;;;;3.40;1.20;;;26.10;49.80;;;;;;5043714;28;20029;-78
2021/06/21 12:36:12;;;;;;;4.65;1.23;;;26.00;49.20;;;;;;5048693;28;20029;-78
2021/06/21 12:38:54;;;;;;;2.65;1.25;;;26.00;48.50;;;;;;5038594;28;20033;-78
2021/06/21 12:41:23;;;;;;;4.10;1.17;;;26.00;51.60;;;;;;5039833;28;20021;-78
2021/06/21 12:43:57;;;;;;;6.95;1.40;;;26.20;51.90;;;;;;5040725;28;20033;-78
2021/06/21 12:46:26;;;;;;;7.78;1.40;;;26.20;52.70;;;;;;5044144;28;20071;-78
2021/06/21 12:48:53;;;;;;;4.30;1.50;;;26.20;50.50;;;;;;5042163;28;20062;-78
2021/06/21 12:51:20;;;;;;;3.83;1.80;;;26.10;48.30;;;;;;5052705;28;20021;-78
2021/06/21 12:53:51;;;;;;;4.45;1.42;;;26.20;48.50;;;;;;5042666;28;20585;-78
2021/06/21 12:56:26;;;;;;;5.05;1.42;;;26.20;46.90;;;;;;5045325;28;20078;-78
2021/06/21 12:58:53;;;;;;;6.50;1.30;;;26.20;46.70;;;;;;5044063;28;20025;-77
2021/06/21 13:01:27;;;;;;;4.13;1.27;;;26.20;47.40;;;;;;5039539;28;20036;-77